sensor_id;sensor_type;location;lat;lon;timestamp;pressure;altitude;pressure_sealevel;temperature;humidity
37202;BME280;37799;52.390;6.136;2022-12-29T00:01:34;99934.47;;;10.42;100.00
37202;BME280;37799;52.390;6.136;2022-12-29T00:04:00;99929.84;;;10.27;100.00
37202;BME280;37799;52.390;6.136;2022-12-29T00:06:25;99931.69;;;10.47;100.00
37202;BME280;37799;52.390;6.136;2022-12-29T00:08:51;99911.69;;;10.50;100.00
37202;BME280;37799;52.390;6.136;2022-12-29T00:11:19;99917.00;;;10.47;100.00
37202;BME280;37799;52.390;6.136;2022-12-29T00:13:44;99896.50;;;10.41;100.00
37202;BME280;37799;52.390;6.136;2022-12-29T00:16:30;99907.41;;;10.49;100.00
37202;BME280;37799;52.390;6.136;2022-12-29T00:18:55;99924.41;;;10.56;100.00
37202;BME280;37799;52.390;6.136;2022-12-29T00:21:22;99911.56;;;10.53;100.00
37202;BME280;37799;52.390;6.136;2022-12-29T00:24:20;99901.47;;;10.47;100.00
37202;BME280;37799;52.390;6.136;2022-12-29T00:29:50;99897.88;;;10.72;100.00
37202;BME280;37799;52.390;6.136;2022-12-29T00:32:34;99903.97;;;10.71;100.00
37202;BME280;37799;52.390;6.136;2022-12-29T00:35:32;99895.59;;;10.64;100.00
37202;BME280;37799;52.390;6.136;2022-12-29T00:38:02;99900.59;;;10.69;100.00
37202;BME280;37799;52.390;6.136;2022-12-29T00:40:47;99897.19;;;10.67;100.00
37202;BME280;37799;52.390;6.136;2022-12-29T00:43:31;99883.41;;;10.66;100.00
37202;BME280;37799;52.390;6.136;2022-12-29T00:46:15;99879.88;;;10.69;100.00
37202;BME280;37799;52.390;6.136;2022-12-29T00:48:40;99879.63;;;10.75;100.00
37202;BME280;37799;52.390;6.136;2022-12-29T00:51:24;99875.78;;;10.63;100.00
37202;BME280;37799;52.390;6.136;2022-12-29T00:53:49;99875.28;;;10.55;100.00
37202;BME280;37799;52.390;6.136;2022-12-29T00:56:14;99880.66;;;10.71;100.00
37202;BME280;37799;52.390;6.136;2022-12-29T00:58:40;99854.00;;;10.69;100.00
37202;BME280;37799;52.390;6.136;2022-12-29T01:01:07;99862.78;;;10.64;100.00
37202;BME280;37799;52.390;6.136;2022-12-29T01:03:33;99856.03;;;10.60;100.00
37202;BME280;37799;52.390;6.136;2022-12-29T01:06:10;99852.19;;;10.71;100.00
37202;BME280;37799;52.390;6.136;2022-12-29T01:08:35;99847.78;;;10.73;100.00
37202;BME280;37799;52.390;6.136;2022-12-29T01:11:09;99841.91;;;10.68;100.00
37202;BME280;37799;52.390;6.136;2022-12-29T01:13:35;99844.47;;;10.69;100.00
37202;BME280;37799;52.390;6.136;2022-12-29T01:16:01;99843.97;;;10.81;100.00
37202;BME280;37799;52.390;6.136;2022-12-29T01:18:26;99822.19;;;10.85;100.00
37202;BME280;37799;52.390;6.136;2022-12-29T01:21:04;99833.00;;;10.75;100.00
37202;BME280;37799;52.390;6.136;2022-12-29T01:23:30;99827.38;;;10.65;100.00
37202;BME280;37799;52.390;6.136;2022-12-29T01:25:56;99824.97;;;10.60;100.00
37202;BME280;37799;52.390;6.136;2022-12-29T01:28:22;99834.28;;;10.64;100.00
37202;BME280;37799;52.390;6.136;2022-12-29T01:30:47;99833.28;;;10.69;100.00
37202;BME280;37799;52.390;6.136;2022-12-29T01:33:13;99833.97;;;10.72;100.00
37202;BME280;37799;52.390;6.136;2022-12-29T01:35:38;99822.50;;;10.78;100.00
37202;BME280;37799;52.390;6.136;2022-12-29T01:38:03;99815.19;;;10.67;100.00
37202;BME280;37799;52.390;6.136;2022-12-29T01:40:29;99804.13;;;10.63;100.00
37202;BME280;37799;52.390;6.136;2022-12-29T01:42:54;99805.38;;;10.55;100.00
37202;BME280;37799;52.390;6.136;2022-12-29T01:45:20;99811.53;;;10.73;100.00
37202;BME280;37799;52.390;6.136;2022-12-29T01:47:58;99802.97;;;10.71;100.00
37202;BME280;37799;52.390;6.136;2022-12-29T01:55:25;99803.06;;;10.69;100.00
37202;BME280;37799;52.390;6.136;2022-12-29T01:57:53;99807.25;;;10.51;100.00
37202;BME280;37799;52.390;6.136;2022-12-29T02:00:20;99800.25;;;10.53;100.00
37202;BME280;37799;52.390;6.136;2022-12-29T02:02:48;99803.09;;;10.47;100.00
37202;BME280;37799;52.390;6.136;2022-12-29T02:05:36;99798.97;;;10.43;100.00
37202;BME280;37799;52.390;6.136;2022-12-29T02:08:03;99779.47;;;10.34;100.00
37202;BME280;37799;52.390;6.136;2022-12-29T02:10:30;99791.31;;;10.40;100.00
37202;BME280;37799;52.390;6.136;2022-12-29T02:12:56;99790.41;;;10.41;100.00
37202;BME280;37799;52.390;6.136;2022-12-29T02:18:30;99794.03;;;10.37;100.00
37202;BME280;37799;52.390;6.136;2022-12-29T02:21:41;99801.94;;;10.34;100.00
37202;BME280;37799;52.390;6.136;2022-12-29T02:24:30;99785.03;;;10.25;100.00
37202;BME280;37799;52.390;6.136;2022-12-29T02:28:11;99798.81;;;10.26;100.00
37202;BME280;37799;52.390;6.136;2022-12-29T02:31:05;99789.00;;;10.34;100.00
37202;BME280;37799;52.390;6.136;2022-12-29T02:38:48;99818.91;;;10.61;100.00
37202;BME280;37799;52.390;6.136;2022-12-29T02:41:26;99807.31;;;10.50;100.00
37202;BME280;37799;52.390;6.136;2022-12-29T02:44:31;99811.66;;;10.70;100.00
37202;BME280;37799;52.390;6.136;2022-12-29T02:47:16;99817.28;;;10.59;100.00
37202;BME280;37799;52.390;6.136;2022-12-29T02:49:46;99828.63;;;10.56;100.00
37202;BME280;37799;52.390;6.136;2022-12-29T02:52:20;99807.78;;;10.59;100.00
37202;BME280;37799;52.390;6.136;2022-12-29T02:54:48;99807.31;;;10.70;100.00
37202;BME280;37799;52.390;6.136;2022-12-29T02:59:42;99805.50;;;10.72;100.00
37202;BME280;37799;52.390;6.136;2022-12-29T03:05:17;99788.47;;;10.67;100.00
37202;BME280;37799;52.390;6.136;2022-12-29T03:07:52;99800.56;;;10.66;100.00
37202;BME280;37799;52.390;6.136;2022-12-29T03:13:02;99793.94;;;10.79;100.00
37202;BME280;37799;52.390;6.136;2022-12-29T03:21:30;99805.56;;;10.71;100.00
37202;BME280;37799;52.390;6.136;2022-12-29T03:24:17;99799.78;;;10.84;100.00
37202;BME280;37799;52.390;6.136;2022-12-29T03:26:45;99793.47;;;10.71;100.00
37202;BME280;37799;52.390;6.136;2022-12-29T03:29:12;99786.69;;;10.69;100.00
37202;BME280;37799;52.390;6.136;2022-12-29T03:31:39;99782.22;;;10.91;100.00
37202;BME280;37799;52.390;6.136;2022-12-29T03:34:06;99785.03;;;10.86;100.00
37202;BME280;37799;52.390;6.136;2022-12-29T03:36:40;99785.09;;;10.64;100.00
37202;BME280;37799;52.390;6.136;2022-12-29T03:39:10;99795.06;;;10.74;100.00
37202;BME280;37799;52.390;6.136;2022-12-29T03:41:43;99799.34;;;10.75;100.00
37202;BME280;37799;52.390;6.136;2022-12-29T03:44:10;99792.94;;;10.83;100.00
37202;BME280;37799;52.390;6.136;2022-12-29T03:46:35;99779.84;;;10.86;100.00
37202;BME280;37799;52.390;6.136;2022-12-29T03:49:00;99793.53;;;10.70;100.00
37202;BME280;37799;52.390;6.136;2022-12-29T03:51:26;99789.38;;;10.86;100.00
37202;BME280;37799;52.390;6.136;2022-12-29T03:53:51;99784.84;;;10.71;100.00
37202;BME280;37799;52.390;6.136;2022-12-29T03:56:16;99781.75;;;10.62;100.00
37202;BME280;37799;52.390;6.136;2022-12-29T03:58:42;99780.59;;;10.70;100.00
37202;BME280;37799;52.390;6.136;2022-12-29T04:01:07;99779.47;;;10.75;100.00
37202;BME280;37799;52.390;6.136;2022-12-29T04:03:32;99779.44;;;10.56;100.00
37202;BME280;37799;52.390;6.136;2022-12-29T04:05:58;99785.09;;;10.64;100.00
37202;BME280;37799;52.390;6.136;2022-12-29T04:08:23;99788.47;;;10.67;100.00
37202;BME280;37799;52.390;6.136;2022-12-29T04:10:49;99796.38;;;10.63;100.00
37202;BME280;37799;52.390;6.136;2022-12-29T04:13:15;99797.28;;;10.62;100.00
37202;BME280;37799;52.390;6.136;2022-12-29T04:15:40;99797.91;;;10.68;100.00
37202;BME280;37799;52.390;6.136;2022-12-29T04:18:07;99796.31;;;10.65;100.00
37202;BME280;37799;52.390;6.136;2022-12-29T04:20:32;99805.03;;;10.62;100.00
37202;BME280;37799;52.390;6.136;2022-12-29T04:23:16;99803.81;;;10.71;100.00
37202;BME280;37799;52.390;6.136;2022-12-29T04:25:45;99792.69;;;10.49;100.00
37202;BME280;37799;52.390;6.136;2022-12-29T04:28:10;99803.44;;;10.60;100.00
37202;BME280;37799;52.390;6.136;2022-12-29T04:30:35;99813.84;;;10.79;100.00
37202;BME280;37799;52.390;6.136;2022-12-29T04:33:01;99803.63;;;10.55;100.00
37202;BME280;37799;52.390;6.136;2022-12-29T04:35:26;99792.63;;;10.50;100.00
37202;BME280;37799;52.390;6.136;2022-12-29T04:37:51;99803.69;;;10.54;100.00
37202;BME280;37799;52.390;6.136;2022-12-29T04:40:17;99795.97;;;10.52;100.00
37202;BME280;37799;52.390;6.136;2022-12-29T04:42:42;99808.69;;;10.58;100.00
37202;BME280;37799;52.390;6.136;2022-12-29T04:45:07;99809.00;;;10.51;100.00
37202;BME280;37799;52.390;6.136;2022-12-29T04:47:33;99802.97;;;10.50;100.00
37202;BME280;37799;52.390;6.136;2022-12-29T04:49:58;99806.56;;;10.68;100.00
37202;BME280;37799;52.390;6.136;2022-12-29T04:52:24;99815.13;;;10.48;100.00
37202;BME280;37799;52.390;6.136;2022-12-29T04:54:49;99801.94;;;10.34;100.00
37202;BME280;37799;52.390;6.136;2022-12-29T04:57:14;99806.41;;;10.30;100.00
37202;BME280;37799;52.390;6.136;2022-12-29T04:59:39;99810.16;;;10.64;100.00
37202;BME280;37799;52.390;6.136;2022-12-29T05:02:05;99811.50;;;10.52;100.00
37202;BME280;37799;52.390;6.136;2022-12-29T05:04:30;99806.66;;;10.65;100.00
37202;BME280;37799;52.390;6.136;2022-12-29T05:06:55;99800.78;;;10.61;100.00
37202;BME280;37799;52.390;6.136;2022-12-29T05:09:21;99821.47;;;10.61;100.00
37202;BME280;37799;52.390;6.136;2022-12-29T05:11:46;99811.19;;;10.60;100.00
37202;BME280;37799;52.390;6.136;2022-12-29T05:14:11;99814.75;;;10.57;100.00
37202;BME280;37799;52.390;6.136;2022-12-29T05:16:36;99811.25;;;10.58;100.00
37202;BME280;37799;52.390;6.136;2022-12-29T05:19:02;99808.91;;;10.52;100.00
37202;BME280;37799;52.390;6.136;2022-12-29T05:21:27;99809.84;;;10.31;100.00
37202;BME280;37799;52.390;6.136;2022-12-29T05:23:53;99810.84;;;10.27;100.00
37202;BME280;37799;52.390;6.136;2022-12-29T05:26:18;99813.69;;;10.41;100.00
37202;BME280;37799;52.390;6.136;2022-12-29T05:28:44;99813.69;;;10.41;100.00
37202;BME280;37799;52.390;6.136;2022-12-29T05:31:09;99804.13;;;10.23;100.00
37202;BME280;37799;52.390;6.136;2022-12-29T05:33:34;99802.91;;;10.31;100.00
37202;BME280;37799;52.390;6.136;2022-12-29T05:36:07;99812.59;;;10.26;100.00
37202;BME280;37799;52.390;6.136;2022-12-29T05:38:33;99809.63;;;10.14;100.00
37202;BME280;37799;52.390;6.136;2022-12-29T05:40:59;99825.97;;;10.14;100.00
37202;BME280;37799;52.390;6.136;2022-12-29T05:43:24;99835.03;;;10.26;100.00
37202;BME280;37799;52.390;6.136;2022-12-29T05:45:50;99835.22;;;10.21;100.00
37202;BME280;37799;52.390;6.136;2022-12-29T05:48:15;99820.78;;;10.16;100.00
37202;BME280;37799;52.390;6.136;2022-12-29T05:50:41;99841.88;;;10.27;100.00
37202;BME280;37799;52.390;6.136;2022-12-29T05:53:06;99839.59;;;10.19;100.00
37202;BME280;37799;52.390;6.136;2022-12-29T05:55:31;99842.34;;;10.15;100.00
37202;BME280;37799;52.390;6.136;2022-12-29T05:57:57;99858.19;;;10.07;100.00
37202;BME280;37799;52.390;6.136;2022-12-29T06:00:22;99851.47;;;10.25;100.00
37202;BME280;37799;52.390;6.136;2022-12-29T06:02:47;99849.47;;;10.10;100.00
37202;BME280;37799;52.390;6.136;2022-12-29T06:05:13;99862.41;;;10.10;100.00
37202;BME280;37799;52.390;6.136;2022-12-29T06:07:38;99881.34;;;10.10;100.00
37202;BME280;37799;52.390;6.136;2022-12-29T06:10:05;99867.91;;;10.24;100.00
37202;BME280;37799;52.390;6.136;2022-12-29T06:12:31;99872.81;;;10.08;100.00
37202;BME280;37799;52.390;6.136;2022-12-29T06:14:56;99873.38;;;10.15;100.00
37202;BME280;37799;52.390;6.136;2022-12-29T06:17:21;99880.28;;;10.16;100.00
37202;BME280;37799;52.390;6.136;2022-12-29T06:19:47;99866.28;;;9.98;100.00
37202;BME280;37799;52.390;6.136;2022-12-29T06:22:12;99864.13;;;9.87;100.00
37202;BME280;37799;52.390;6.136;2022-12-29T06:24:37;99868.88;;;9.98;100.00
37202;BME280;37799;52.390;6.136;2022-12-29T06:27:03;99864.38;;;9.81;100.00
37202;BME280;37799;52.390;6.136;2022-12-29T06:29:28;99873.75;;;9.84;100.00
37202;BME280;37799;52.390;6.136;2022-12-29T06:31:54;99865.03;;;9.86;100.00
37202;BME280;37799;52.390;6.136;2022-12-29T06:34:23;99881.25;;;9.68;100.00
37202;BME280;37799;52.390;6.136;2022-12-29T06:36:48;99880.22;;;9.72;100.00
37202;BME280;37799;52.390;6.136;2022-12-29T06:39:14;99864.31;;;9.59;100.00
37202;BME280;37799;52.390;6.136;2022-12-29T06:41:39;99866.75;;;9.64;100.00
37202;BME280;37799;52.390;6.136;2022-12-29T06:44:04;99878.53;;;9.71;100.00
37202;BME280;37799;52.390;6.136;2022-12-29T06:46:29;99874.84;;;9.78;100.00
37202;BME280;37799;52.390;6.136;2022-12-29T06:48:55;99887.31;;;9.67;100.00
37202;BME280;37799;52.390;6.136;2022-12-29T06:51:20;99885.31;;;9.73;100.00
37202;BME280;37799;52.390;6.136;2022-12-29T06:53:45;99891.53;;;9.69;100.00
37202;BME280;37799;52.390;6.136;2022-12-29T06:56:11;99895.00;;;9.68;100.00
37202;BME280;37799;52.390;6.136;2022-12-29T06:58:36;99893.47;;;9.86;100.00
37202;BME280;37799;52.390;6.136;2022-12-29T07:01:01;99898.38;;;9.70;100.00
37202;BME280;37799;52.390;6.136;2022-12-29T07:03:26;99896.19;;;9.60;100.00
37202;BME280;37799;52.390;6.136;2022-12-29T07:05:52;99910.47;;;9.70;100.00
37202;BME280;37799;52.390;6.136;2022-12-29T07:08:19;99911.56;;;9.63;100.00
37202;BME280;37799;52.390;6.136;2022-12-29T07:10:45;99903.50;;;9.72;100.00
37202;BME280;37799;52.390;6.136;2022-12-29T07:13:10;99922.81;;;9.62;100.00
37202;BME280;37799;52.390;6.136;2022-12-29T07:15:37;99924.38;;;9.42;100.00
37202;BME280;37799;52.390;6.136;2022-12-29T07:18:02;99925.00;;;9.26;100.00
37202;BME280;37799;52.390;6.136;2022-12-29T07:20:29;99925.44;;;9.37;100.00
37202;BME280;37799;52.390;6.136;2022-12-29T07:22:54;99916.97;;;9.33;100.00
37202;BME280;37799;52.390;6.136;2022-12-29T07:25:19;99911.66;;;9.38;100.00
37202;BME280;37799;52.390;6.136;2022-12-29T07:27:44;99911.78;;;9.33;100.00
37202;BME280;37799;52.390;6.136;2022-12-29T07:30:10;99922.72;;;9.16;100.00
37202;BME280;37799;52.390;6.136;2022-12-29T07:32:36;99914.81;;;9.21;100.00
37202;BME280;37799;52.390;6.136;2022-12-29T07:35:01;99912.06;;;9.26;100.00
37202;BME280;37799;52.390;6.136;2022-12-29T07:37:27;99923.13;;;9.29;100.00
37202;BME280;37799;52.390;6.136;2022-12-29T07:39:52;99921.66;;;9.22;100.00
37202;BME280;37799;52.390;6.136;2022-12-29T07:42:17;99952.13;;;9.37;100.00
37202;BME280;37799;52.390;6.136;2022-12-29T07:44:43;99931.78;;;9.28;100.00
37202;BME280;37799;52.390;6.136;2022-12-29T07:47:08;99942.53;;;9.16;100.00
37202;BME280;37799;52.390;6.136;2022-12-29T07:49:33;99930.84;;;9.06;100.00
37202;BME280;37799;52.390;6.136;2022-12-29T07:51:59;99918.03;;;9.03;100.00
37202;BME280;37799;52.390;6.136;2022-12-29T07:54:24;99933.16;;;8.89;100.00
37202;BME280;37799;52.390;6.136;2022-12-29T07:56:50;99938.44;;;8.85;100.00
37202;BME280;37799;52.390;6.136;2022-12-29T07:59:15;99931.91;;;9.00;100.00
37202;BME280;37799;52.390;6.136;2022-12-29T08:01:41;99932.94;;;8.95;100.00
37202;BME280;37799;52.390;6.136;2022-12-29T08:04:06;99937.69;;;9.07;100.00
37202;BME280;37799;52.390;6.136;2022-12-29T08:06:31;99941.56;;;8.94;100.00
37202;BME280;37799;52.390;6.136;2022-12-29T08:08:57;99944.09;;;8.95;100.00
37202;BME280;37799;52.390;6.136;2022-12-29T08:11:23;99946.06;;;8.62;100.00
37202;BME280;37799;52.390;6.136;2022-12-29T08:13:48;99949.78;;;8.80;100.00
37202;BME280;37799;52.390;6.136;2022-12-29T08:16:13;99940.56;;;8.73;100.00
37202;BME280;37799;52.390;6.136;2022-12-29T08:18:39;99946.97;;;8.88;100.00
37202;BME280;37799;52.390;6.136;2022-12-29T08:21:04;99945.75;;;8.71;100.00
37202;BME280;37799;52.390;6.136;2022-12-29T08:23:30;99945.81;;;8.70;100.00
37202;BME280;37799;52.390;6.136;2022-12-29T08:26:04;99946.56;;;8.73;100.00
37202;BME280;37799;52.390;6.136;2022-12-29T08:28:30;99953.16;;;8.82;100.00
37202;BME280;37799;52.390;6.136;2022-12-29T08:31:00;99953.31;;;8.77;100.00
37202;BME280;37799;52.390;6.136;2022-12-29T08:33:27;99947.88;;;8.58;100.00
37202;BME280;37799;52.390;6.136;2022-12-29T08:35:52;99937.44;;;8.63;100.00
37202;BME280;37799;52.390;6.136;2022-12-29T08:38:17;99927.72;;;8.70;100.00
37202;BME280;37799;52.390;6.136;2022-12-29T08:40:43;99933.75;;;8.70;100.00
37202;BME280;37799;52.390;6.136;2022-12-29T08:43:08;99937.56;;;8.85;100.00
37202;BME280;37799;52.390;6.136;2022-12-29T08:45:34;99930.06;;;8.77;100.00
37202;BME280;37799;52.390;6.136;2022-12-29T08:47:59;99951.16;;;8.90;100.00
37202;BME280;37799;52.390;6.136;2022-12-29T08:50:24;99936.09;;;8.78;100.00
37202;BME280;37799;52.390;6.136;2022-12-29T08:52:50;99940.78;;;8.92;100.00
37202;BME280;37799;52.390;6.136;2022-12-29T08:55:15;99937.63;;;9.08;100.00
37202;BME280;37799;52.390;6.136;2022-12-29T08:57:40;99951.97;;;9.17;100.00
37202;BME280;37799;52.390;6.136;2022-12-29T09:00:06;99942.13;;;9.28;100.00
37202;BME280;37799;52.390;6.136;2022-12-29T09:02:32;99949.16;;;9.23;100.00
37202;BME280;37799;52.390;6.136;2022-12-29T09:04:57;99946.34;;;9.31;100.00
37202;BME280;37799;52.390;6.136;2022-12-29T09:07:24;99947.66;;;9.42;100.00
37202;BME280;37799;52.390;6.136;2022-12-29T09:09:49;99929.00;;;9.58;100.00
37202;BME280;37799;52.390;6.136;2022-12-29T09:12:16;99928.78;;;9.64;100.00
37202;BME280;37799;52.390;6.136;2022-12-29T09:14:41;99938.72;;;9.74;100.00
37202;BME280;37799;52.390;6.136;2022-12-29T09:17:08;99940.47;;;9.74;100.00
37202;BME280;37799;52.390;6.136;2022-12-29T09:19:52;99941.72;;;9.64;100.00
37202;BME280;37799;52.390;6.136;2022-12-29T09:22:18;99937.53;;;9.60;100.00
37202;BME280;37799;52.390;6.136;2022-12-29T09:24:43;99953.69;;;9.66;100.00
37202;BME280;37799;52.390;6.136;2022-12-29T09:27:09;99958.41;;;9.79;100.00
37202;BME280;37799;52.390;6.136;2022-12-29T09:29:34;99954.41;;;9.70;100.00
37202;BME280;37799;52.390;6.136;2022-12-29T09:31:59;99957.25;;;9.62;100.00
37202;BME280;37799;52.390;6.136;2022-12-29T09:34:25;99956.28;;;9.41;100.00
37202;BME280;37799;52.390;6.136;2022-12-29T09:36:50;99967.72;;;9.34;100.00
37202;BME280;37799;52.390;6.136;2022-12-29T09:39:15;99953.72;;;9.41;100.00
37202;BME280;37799;52.390;6.136;2022-12-29T09:42:00;99972.28;;;9.53;100.00
37202;BME280;37799;52.390;6.136;2022-12-29T09:47:20;99969.03;;;9.46;100.00
37202;BME280;37799;52.390;6.136;2022-12-29T09:53:14;99971.75;;;9.43;100.00
37202;BME280;37799;52.390;6.136;2022-12-29T09:55:53;99987.56;;;9.59;100.00
37202;BME280;37799;52.390;6.136;2022-12-29T10:03:57;99983.13;;;9.37;100.00
37202;BME280;37799;52.390;6.136;2022-12-29T10:06:49;99996.47;;;9.50;100.00
37202;BME280;37799;52.390;6.136;2022-12-29T10:09:30;99985.28;;;9.50;100.00
37202;BME280;37799;52.390;6.136;2022-12-29T10:12:28;100008.09;;;9.62;100.00
37202;BME280;37799;52.390;6.136;2022-12-29T10:21:00;100005.16;;;9.48;100.00
37202;BME280;37799;52.390;6.136;2022-12-29T10:23:39;100006.66;;;9.55;100.00
37202;BME280;37799;52.390;6.136;2022-12-29T10:26:12;100015.97;;;9.59;100.00
37202;BME280;37799;52.390;6.136;2022-12-29T10:28:43;100025.06;;;9.45;100.00
37202;BME280;37799;52.390;6.136;2022-12-29T10:31:16;100035.44;;;9.44;100.00
37202;BME280;37799;52.390;6.136;2022-12-29T10:33:45;100027.22;;;9.33;100.00
37202;BME280;37799;52.390;6.136;2022-12-29T10:36:18;100046.03;;;9.36;100.00
37202;BME280;37799;52.390;6.136;2022-12-29T10:38:48;100042.94;;;9.27;100.00
37202;BME280;37799;52.390;6.136;2022-12-29T10:41:39;100052.09;;;9.09;100.00
37202;BME280;37799;52.390;6.136;2022-12-29T10:44:10;100059.78;;;9.12;100.00
37202;BME280;37799;52.390;6.136;2022-12-29T10:46:38;100061.34;;;9.16;100.00
37202;BME280;37799;52.390;6.136;2022-12-29T10:49:06;100063.22;;;9.11;100.00
37202;BME280;37799;52.390;6.136;2022-12-29T10:51:38;100064.09;;;9.11;100.00
37202;BME280;37799;52.390;6.136;2022-12-29T10:57:03;100077.41;;;8.98;100.00
37202;BME280;37799;52.390;6.136;2022-12-29T10:59:33;100082.91;;;8.89;100.00
37202;BME280;37799;52.390;6.136;2022-12-29T11:07:07;100098.06;;;8.98;100.00
37202;BME280;37799;52.390;6.136;2022-12-29T11:09:35;100101.75;;;8.91;100.00
37202;BME280;37799;52.390;6.136;2022-12-29T11:12:23;100102.75;;;8.86;100.00
37202;BME280;37799;52.390;6.136;2022-12-29T11:17:53;100111.09;;;8.95;100.00
37202;BME280;37799;52.390;6.136;2022-12-29T11:20:26;100111.09;;;8.95;100.00
37202;BME280;37799;52.390;6.136;2022-12-29T11:22:53;100111.66;;;9.04;100.00
37202;BME280;37799;52.390;6.136;2022-12-29T11:25:18;100116.59;;;9.12;100.00
37202;BME280;37799;52.390;6.136;2022-12-29T11:27:55;100119.75;;;9.20;100.00
37202;BME280;37799;52.390;6.136;2022-12-29T11:30:24;100127.19;;;9.31;100.00
37202;BME280;37799;52.390;6.136;2022-12-29T11:32:51;100132.63;;;9.22;100.00
37202;BME280;37799;52.390;6.136;2022-12-29T11:35:39;100135.16;;;9.23;100.00
37202;BME280;37799;52.390;6.136;2022-12-29T11:38:23;100143.91;;;9.19;100.00
37202;BME280;37799;52.390;6.136;2022-12-29T11:40:50;100147.34;;;9.20;100.00
37202;BME280;37799;52.390;6.136;2022-12-29T11:43:25;100160.41;;;9.15;100.00
37202;BME280;37799;52.390;6.136;2022-12-29T11:45:54;100161.16;;;9.19;100.00
37202;BME280;37799;52.390;6.136;2022-12-29T11:48:21;100150.34;;;9.06;100.00
37202;BME280;37799;52.390;6.136;2022-12-29T11:50:53;100165.84;;;9.06;100.00
37202;BME280;37799;52.390;6.136;2022-12-29T11:56:06;100178.72;;;9.07;100.00
37202;BME280;37799;52.390;6.136;2022-12-29T11:58:35;100185.50;;;9.10;100.00
37202;BME280;37799;52.390;6.136;2022-12-29T12:01:29;100185.25;;;9.19;100.00
37202;BME280;37799;52.390;6.136;2022-12-29T12:04:03;100180.97;;;9.18;100.00
37202;BME280;37799;52.390;6.136;2022-12-29T12:06:35;100193.59;;;9.27;100.00
37202;BME280;37799;52.390;6.136;2022-12-29T12:09:16;100190.28;;;9.50;100.00
37202;BME280;37799;52.390;6.136;2022-12-29T12:11:43;100180.41;;;9.63;100.00
37202;BME280;37799;52.390;6.136;2022-12-29T12:14:30;100182.81;;;9.69;100.00
37202;BME280;37799;52.390;6.136;2022-12-29T12:17:09;100181.94;;;9.95;100.00
37202;BME280;37799;52.390;6.136;2022-12-29T12:19:51;100174.38;;;10.14;100.00
37202;BME280;37799;52.390;6.136;2022-12-29T12:25:01;100188.63;;;10.27;100.00
37202;BME280;37799;52.390;6.136;2022-12-29T12:27:46;100191.78;;;10.35;100.00
37202;BME280;37799;52.390;6.136;2022-12-29T12:30:21;100194.19;;;10.40;100.00
37202;BME280;37799;52.390;6.136;2022-12-29T12:32:57;100198.69;;;10.10;100.00
37202;BME280;37799;52.390;6.136;2022-12-29T12:46:51;100211.66;;;10.08;100.00
37202;BME280;37799;52.390;6.136;2022-12-29T12:52:12;100213.91;;;10.19;100.00
37202;BME280;37799;52.390;6.136;2022-12-29T12:55:22;100219.84;;;10.22;100.00
37202;BME280;37799;52.390;6.136;2022-12-29T12:58:03;100221.84;;;10.13;100.00
37202;BME280;37799;52.390;6.136;2022-12-29T13:04:24;100234.41;;;9.98;100.00
37202;BME280;37799;52.390;6.136;2022-12-29T13:12:33;100249.63;;;9.81;100.00
37202;BME280;37799;52.390;6.136;2022-12-29T13:15:39;100243.06;;;9.71;100.00
37202;BME280;37799;52.390;6.136;2022-12-29T13:18:04;100244.41;;;9.83;100.00
37202;BME280;37799;52.390;6.136;2022-12-29T13:20:44;100250.13;;;9.66;100.00
37202;BME280;37799;52.390;6.136;2022-12-29T13:25:58;100250.00;;;9.69;100.00
37202;BME280;37799;52.390;6.136;2022-12-29T13:31:31;100256.72;;;9.74;100.00
37202;BME280;37799;52.390;6.136;2022-12-29T13:34:14;100268.75;;;9.75;100.00
37202;BME280;37799;52.390;6.136;2022-12-29T13:36:47;100262.19;;;9.65;100.00
37202;BME280;37799;52.390;6.136;2022-12-29T13:39:34;100267.50;;;9.61;100.00
37202;BME280;37799;52.390;6.136;2022-12-29T13:42:01;100276.75;;;9.68;100.00
37202;BME280;37799;52.390;6.136;2022-12-29T13:47:01;100288.13;;;9.62;100.00
37202;BME280;37799;52.390;6.136;2022-12-29T13:49:28;100284.06;;;9.55;100.00
37202;BME280;37799;52.390;6.136;2022-12-29T13:52:04;100291.06;;;9.52;100.00
37202;BME280;37799;52.390;6.136;2022-12-29T13:54:46;100283.78;;;9.63;100.00
37202;BME280;37799;52.390;6.136;2022-12-29T14:00:20;100288.69;;;9.72;100.00
37202;BME280;37799;52.390;6.136;2022-12-29T14:07:45;100298.41;;;9.65;100.00
37202;BME280;37799;52.390;6.136;2022-12-29T14:13:03;100301.19;;;9.58;100.00
37202;BME280;37799;52.390;6.136;2022-12-29T14:15:29;100311.81;;;9.49;100.00
37202;BME280;37799;52.390;6.136;2022-12-29T14:18:10;100310.69;;;9.57;100.00
37202;BME280;37799;52.390;6.136;2022-12-29T14:20:38;100314.63;;;9.41;100.00
37202;BME280;37799;52.390;6.136;2022-12-29T14:28:26;100308.69;;;9.67;100.00
37202;BME280;37799;52.390;6.136;2022-12-29T14:30:54;100307.38;;;9.54;100.00
37202;BME280;37799;52.390;6.136;2022-12-29T14:33:21;100305.31;;;9.63;100.00
37202;BME280;37799;52.390;6.136;2022-12-29T14:35:48;100296.19;;;9.53;100.00
37202;BME280;37799;52.390;6.136;2022-12-29T14:38:23;100307.53;;;9.48;100.00
37202;BME280;37799;52.390;6.136;2022-12-29T14:40:49;100311.22;;;9.68;100.00
37202;BME280;37799;52.390;6.136;2022-12-29T14:43:33;100307.31;;;9.55;100.00
37202;BME280;37799;52.390;6.136;2022-12-29T14:46:00;100316.97;;;9.49;100.00
37202;BME280;37799;52.390;6.136;2022-12-29T14:48:42;100316.22;;;9.45;100.00
37202;BME280;37799;52.390;6.136;2022-12-29T14:51:21;100322.69;;;9.30;100.00
37202;BME280;37799;52.390;6.136;2022-12-29T14:53:53;100327.25;;;9.52;100.00
37202;BME280;37799;52.390;6.136;2022-12-29T14:56:23;100325.72;;;9.44;100.00
37202;BME280;37799;52.390;6.136;2022-12-29T14:58:58;100328.31;;;9.44;100.00
37202;BME280;37799;52.390;6.136;2022-12-29T15:01:48;100328.69;;;9.31;100.00